createdAt,value
2016-10-18T00:00:04.402Z,71.42
2016-10-18T00:01:04.486Z,71.71
2016-10-18T00:02:04.357Z,71.62
2016-10-18T00:03:04.290Z,71.33
2016-10-18T00:04:04.284Z,71.52
2016-10-18T00:05:04.247Z,71.42
2016-10-18T00:06:04.347Z,71.42
2016-10-18T00:07:04.200Z,71.81
2016-10-18T00:08:04.201Z,71.81
2016-10-18T00:09:04.129Z,71.81
2016-10-18T00:10:05.252Z,71.62
2016-10-18T00:11:05.051Z,71.52
2016-10-18T00:12:04.394Z,71.33
2016-10-18T00:13:18.746Z,71.71
2016-10-18T00:14:04.001Z,71.81
2016-10-18T00:15:18.995Z,71.42
2016-10-18T00:16:03.940Z,71.33
2016-10-18T00:17:04.250Z,71.71
2016-10-18T00:18:04.160Z,71.62
2016-10-18T00:19:03.852Z,71.91
2016-10-18T00:20:03.814Z,71.81
2016-10-18T00:21:03.805Z,71.71
2016-10-18T00:22:03.773Z,71.71
2016-10-18T00:23:03.742Z,71.42
2016-10-18T00:24:03.713Z,71.52
2016-10-18T00:25:04.082Z,71.33
2016-10-18T00:26:04.352Z,71.14
2016-10-18T00:27:03.913Z,70.85
2016-10-18T00:28:03.626Z,70.76
2016-10-18T00:29:06.602Z,70.56
2016-10-18T00:30:03.560Z,70.85
2016-10-18T00:31:03.530Z,71.14
2016-10-18T00:32:03.498Z,71.23
2016-10-18T00:33:03.540Z,70.76
2016-10-18T00:34:03.429Z,70.76
2016-10-18T00:35:18.133Z,71.11
2016-10-18T00:36:03.522Z,71.3
2016-10-18T00:37:03.344Z,71.52
2016-10-18T00:38:03.331Z,71.91
2016-10-18T00:39:03.295Z,71.97
2016-10-18T00:40:03.634Z,71.48
2016-10-18T00:41:03.598Z,71.23
2016-10-18T00:42:03.207Z,71.11
2016-10-18T00:43:03.185Z,70.91
2016-10-18T00:44:03.180Z,70.81
2016-10-18T00:45:03.123Z,71.2
2016-10-18T00:46:17.828Z,70.81
2016-10-18T00:47:03.063Z,70.91
2016-10-18T00:49:03.027Z,70.34
2016-10-18T00:50:02.992Z,70.05
2016-10-18T00:51:02.971Z,70.24
2016-10-18T00:52:02.977Z,70.15
2016-10-18T00:53:02.900Z,70.05
2016-10-18T00:54:03.189Z,69.95
2016-10-18T00:55:02.975Z,70.62
2016-10-18T00:56:02.823Z,70.43
2016-10-18T00:57:02.797Z,71.11
2016-10-18T00:58:02.764Z,70.81
2016-10-18T00:59:02.817Z,71.01
2016-10-18T01:00:02.763Z,71.39
2016-10-18T01:01:04.228Z,71.11
2016-10-18T01:02:02.659Z,70.62
2016-10-18T01:03:17.644Z,70.15
2016-10-18T01:04:02.586Z,69.95
2016-10-18T01:05:17.293Z,70.05
2016-10-18T01:06:02.536Z,70.15
2016-10-18T01:07:08.745Z,69.95
2016-10-18T01:08:02.528Z,70.05
2016-10-18T01:09:02.484Z,70.53
2016-10-18T01:10:02.576Z,71.11
2016-10-18T01:11:02.505Z,71.01
2016-10-18T01:12:02.618Z,70.91
2016-10-18T01:13:02.479Z,71.01
2016-10-18T01:14:02.352Z,71.07
2016-10-18T01:15:02.335Z,71.11
2016-10-18T01:16:02.271Z,71.01
2016-10-18T01:17:02.247Z,71.01
2016-10-18T01:19:02.177Z,69.95
2016-10-18T01:20:02.178Z,70.05
2016-10-18T01:21:02.497Z,70.05
2016-10-18T01:22:02.104Z,70.43
2016-10-18T01:23:02.080Z,70.53
2016-10-18T01:24:02.064Z,71.01
2016-10-18T01:25:02.032Z,70.91
2016-10-18T01:26:01.973Z,70.81
2016-10-18T01:27:01.979Z,70.4
2016-10-18T01:28:02.139Z,70.05
2016-10-18T01:30:01.863Z,70.34
2016-10-18T01:31:01.850Z,70.15
2016-10-18T01:32:01.821Z,69.92
2016-10-18T01:33:01.826Z,70.24
2016-10-18T01:34:01.792Z,70.21
2016-10-18T01:35:01.717Z,70.21
2016-10-18T01:36:02.085Z,70.24
2016-10-18T01:37:01.697Z,70.24
2016-10-18T01:38:01.643Z,70.59
2016-10-18T01:39:01.613Z,70.4
2016-10-18T01:40:01.579Z,70.59
2016-10-18T01:41:01.923Z,70.78
2016-10-18T01:42:16.252Z,71.26
2016-10-18T01:43:01.509Z,71.07
2016-10-18T01:44:16.195Z,71.45
2016-10-18T01:45:01.458Z,71.16
2016-10-18T01:46:01.419Z,71.36
2016-10-18T01:47:01.395Z,70.53
2016-10-18T01:48:01.359Z,70.78
2016-10-18T01:49:01.739Z,70.11
2016-10-18T01:50:01.583Z,70.68
2016-10-18T01:51:01.643Z,70.21
2016-10-18T01:52:01.242Z,70.5
2016-10-18T01:53:01.221Z,70.01
2016-10-18T01:54:01.763Z,70.01
2016-10-18T01:55:01.329Z,69.73
2016-10-18T01:56:01.144Z,70.01
2016-10-18T01:57:01.105Z,69.73
2016-10-18T01:58:01.164Z,69.92
2016-10-18T01:59:01.425Z,70.11
2016-10-18T02:00:01.017Z,70.3
2016-10-18T02:01:00.982Z,70.68
2016-10-18T02:02:00.958Z,71.07
2016-10-18T02:03:00.926Z,71.26
2016-10-18T02:04:00.895Z,70.68
2016-10-18T02:05:01.236Z,70.97
2016-10-18T02:06:00.850Z,70.87
2016-10-18T02:07:00.818Z,71.55
2016-10-18T02:08:00.800Z,71.16
2016-10-18T02:09:00.783Z,71.73
2016-10-18T02:10:00.797Z,72.02
2016-10-18T02:11:00.709Z,72.12
2016-10-18T02:12:02.585Z,72.22
2016-10-18T02:13:00.646Z,71.83
2016-10-18T02:14:00.616Z,71.07
2016-10-18T02:15:00.955Z,70.97
2016-10-18T02:16:00.571Z,71.07
2016-10-18T02:17:15.259Z,70.5
2016-10-18T02:18:00.511Z,70.3
2016-10-18T02:19:00.484Z,70.4
2016-10-18T02:20:00.476Z,71.16
2016-10-18T02:21:00.420Z,70.97
2016-10-18T02:22:00.387Z,70.01
2016-10-18T02:23:00.774Z,69.64
2016-10-18T02:24:00.939Z,69.82
2016-10-18T02:25:00.372Z,70.01
2016-10-18T02:26:00.447Z,70.21
2016-10-18T02:27:00.251Z,70.4
2016-10-18T02:28:00.582Z,70.3
2016-10-18T02:29:01.196Z,70.01
2016-10-18T02:31:00.270Z,69.44
2016-10-18T02:32:00.463Z,70.5
2016-10-18T02:33:00.437Z,70.59
2016-10-18T02:34:00.129Z,70.4
2016-10-18T02:35:00.039Z,70.78
2016-10-18T02:36:00.059Z,71.07
2016-10-18T02:36:59.971Z,71.07
2016-10-18T02:37:59.941Z,71.16
2016-10-18T02:38:59.933Z,70.87
2016-10-18T02:39:59.875Z,70.59
2016-10-18T02:40:59.867Z,71.07
2016-10-18T02:41:59.836Z,71.16
2016-10-18T02:42:59.802Z,71.36
2016-10-18T02:44:01.146Z,70.97
2016-10-18T02:45:00.375Z,71.16
2016-10-18T02:45:59.724Z,71.07
2016-10-18T02:47:14.412Z,70.97
2016-10-18T02:47:59.648Z,71.07
2016-10-18T02:48:59.650Z,70.97
2016-10-18T02:49:59.633Z,70.68
2016-10-18T02:51:00.270Z,70.4
2016-10-18T02:51:59.543Z,70.97
2016-10-18T02:52:59.885Z,70.11
2016-10-18T02:53:59.484Z,70.5
2016-10-18T02:54:59.449Z,70.01
2016-10-18T02:55:59.431Z,71.2
2016-10-18T02:56:59.401Z,70.81
2016-10-18T02:57:59.392Z,70.97
2016-10-18T02:58:59.697Z,71.16
2016-10-18T02:59:59.315Z,70.68
2016-10-18T03:00:59.776Z,71.36
2016-10-18T03:01:59.272Z,71.36
2016-10-18T03:02:59.277Z,71.3
2016-10-18T03:03:59.208Z,71.39
2016-10-18T03:04:59.171Z,71.26
2016-10-18T03:05:59.143Z,71.73
2016-10-18T03:06:59.116Z,71.36
2016-10-18T03:07:59.118Z,71.36
2016-10-18T03:08:59.081Z,71.64
2016-10-18T03:09:59.043Z,71.83
2016-10-18T03:10:59.011Z,70.97
2016-10-18T03:11:58.981Z,70.68
2016-10-18T03:12:59.323Z,70.97
2016-10-18T03:13:58.925Z,71.55
2016-10-18T03:14:58.892Z,70.87
2016-10-18T03:15:58.870Z,71.55
2016-10-18T03:16:58.836Z,71.55
2016-10-18T03:17:58.801Z,71.55
2016-10-18T03:18:58.784Z,71.73
2016-10-18T03:19:59.107Z,71.55
2016-10-18T03:21:59.090Z,70.78
2016-10-18T03:22:58.670Z,70.78
2016-10-18T03:23:58.632Z,71.16
2016-10-18T03:24:58.639Z,70.78
2016-10-18T03:25:58.761Z,70.91
2016-10-18T03:26:58.583Z,71.11
2016-10-18T03:28:58.508Z,71.39
2016-10-18T03:30:58.449Z,71.73
2016-10-18T03:31:58.413Z,72.06
2016-10-18T03:32:58.776Z,72.12
2016-10-18T03:33:58.359Z,72.06
2016-10-18T03:34:58.343Z,72.25
2016-10-18T03:35:58.338Z,72.34
2016-10-18T03:36:58.302Z,72.06
2016-10-18T03:37:58.236Z,71.77
2016-10-18T03:38:58.246Z,71.68
2016-10-18T03:39:58.282Z,71.58
2016-10-18T03:40:58.172Z,72.16
2016-10-18T03:41:58.212Z,72.16
2016-10-18T03:42:58.100Z,71.68
2016-10-18T03:43:58.132Z,72.06
2016-10-18T03:44:58.040Z,71.87
2016-10-18T03:45:58.024Z,71.48
2016-10-18T03:46:58.363Z,71.39
2016-10-18T03:47:57.967Z,71.39
2016-10-18T03:48:57.923Z,71.2
2016-10-18T03:49:58.275Z,71.39
2016-10-18T03:50:57.870Z,70.62
2016-10-18T03:51:57.840Z,71.01
2016-10-18T03:52:57.819Z,71.3
2016-10-18T03:53:57.811Z,71.58
2016-10-18T03:54:57.784Z,71.3
2016-10-18T03:55:57.725Z,71.68
2016-10-18T03:56:57.710Z,72.06
2016-10-18T03:57:57.671Z,72.16
2016-10-18T03:58:57.642Z,72.54
2016-10-18T03:59:57.618Z,72.34
2016-10-18T04:01:57.578Z,72.16
2016-10-18T04:02:57.953Z,72.34
2016-10-18T04:03:57.534Z,71.87
2016-10-18T04:04:57.878Z,71.58
2016-10-18T04:05:57.476Z,71.87
2016-10-18T04:06:57.418Z,72.34
2016-10-18T04:07:57.396Z,72.25
2016-10-18T04:08:57.357Z,71.3
2016-10-18T04:09:57.369Z,71.39
2016-10-18T04:10:57.319Z,72.16
2016-10-18T04:11:57.588Z,71.58
2016-10-18T04:12:57.245Z,71.77
2016-10-18T04:13:57.223Z,71.68
2016-10-18T04:14:57.217Z,71.68
2016-10-18T04:16:57.137Z,71.68
2016-10-18T04:17:57.112Z,71.87
2016-10-18T04:18:57.123Z,72.06
2016-10-18T04:19:57.044Z,72.25
2016-10-18T04:20:57.156Z,71.48
2016-10-18T04:21:57.011Z,71.77
2016-10-18T04:22:56.963Z,71.48
2016-10-18T04:23:56.966Z,71.77
2016-10-18T04:24:56.935Z,71.87
2016-10-18T04:25:56.928Z,72.06
2016-10-18T04:27:11.590Z,72.06
2016-10-18T04:27:56.817Z,71.97
2016-10-18T04:28:56.806Z,71.87
2016-10-18T04:29:56.766Z,72.06
2016-10-18T04:30:56.743Z,72.54
2016-10-18T04:31:56.728Z,72.34
2016-10-18T04:32:56.692Z,72.54
2016-10-18T04:33:56.687Z,72.54
2016-10-18T04:34:56.640Z,72.73
2016-10-18T04:35:56.666Z,71.97
2016-10-18T04:36:56.616Z,72.44
2016-10-18T04:37:56.560Z,72.34
2016-10-18T04:38:56.862Z,72.54
2016-10-18T04:39:56.540Z,72.54
2016-10-18T04:40:56.458Z,72.09
2016-10-18T04:41:56.472Z,72.67
2016-10-18T04:42:56.756Z,72.86
2016-10-18T04:43:57.035Z,72.58
2016-10-18T04:44:56.359Z,72.58
2016-10-18T04:45:56.325Z,72.09
2016-10-18T04:46:56.305Z,72.09
2016-10-18T04:47:56.774Z,72.29
2016-10-18T04:48:56.250Z,72.58
2016-10-18T04:49:56.712Z,72.29
2016-10-18T04:50:56.179Z,72.19
2016-10-18T04:52:11.340Z,72.77
2016-10-18T04:52:56.123Z,72.58
2016-10-18T04:54:10.837Z,73.3
2016-10-18T04:54:56.055Z,73.59
2016-10-18T04:55:56.040Z,72.77
2016-10-18T04:56:56.006Z,73.34
2016-10-18T04:57:55.975Z,72.73
2016-10-18T04:58:55.962Z,73.02
2016-10-18T04:59:55.940Z,73.02
2016-10-18T05:00:55.896Z,72.92
2016-10-18T05:01:55.856Z,73.11
2016-10-18T05:02:55.908Z,73.02
2016-10-18T05:03:56.167Z,72.73
2016-10-18T05:04:55.780Z,73.21
2016-10-18T05:05:55.748Z,73.02
2016-10-18T05:06:55.724Z,72.83
2016-10-18T05:07:55.697Z,72
2016-10-18T05:08:55.666Z,72.25
2016-10-18T05:09:55.644Z,72
2016-10-18T05:10:55.648Z,72.09
2016-10-18T05:11:55.582Z,72.19
2016-10-18T05:12:55.969Z,72.16
2016-10-18T05:13:55.518Z,72.29
2016-10-18T05:14:55.490Z,72.19
2016-10-18T05:15:55.470Z,72.09
2016-10-18T05:16:55.433Z,72.48
2016-10-18T05:17:55.421Z,72.77
2016-10-18T05:18:55.385Z,72.58
2016-10-18T05:19:56.009Z,72.73
2016-10-18T05:21:55.298Z,72.38
2016-10-18T05:22:55.272Z,72.58
2016-10-18T05:23:55.323Z,72.67
2016-10-18T05:24:55.215Z,72.67
2016-10-18T05:25:55.219Z,72.86
2016-10-18T05:27:09.883Z,72.77
2016-10-18T05:27:55.179Z,72.38
2016-10-18T05:28:55.099Z,72.48
2016-10-18T05:29:55.436Z,72.77
2016-10-18T05:30:55.061Z,72.58
2016-10-18T05:31:55.059Z,72.67
2016-10-18T05:32:55.364Z,72.67
2016-10-18T05:34:54.970Z,73.15
2016-10-18T05:35:54.924Z,72.29
2016-10-18T05:36:55.228Z,73.24
2016-10-18T05:37:54.856Z,72.96
2016-10-18T05:38:54.821Z,72.77
2016-10-18T05:39:54.846Z,73.05
2016-10-18T05:41:09.499Z,73.34
2016-10-18T05:41:54.739Z,72.77
2016-10-18T05:42:54.708Z,73.24
2016-10-18T05:43:54.725Z,73.34
2016-10-18T05:44:54.664Z,72.77
2016-10-18T05:45:54.640Z,72.67
2016-10-18T05:46:54.588Z,72.58
2016-10-18T05:48:54.549Z,72.8
2016-10-18T05:50:00.752Z,72.48
2016-10-18T05:50:54.491Z,72.99
2016-10-18T05:51:54.457Z,73.09
2016-10-18T05:52:54.427Z,72.8
2016-10-18T05:53:54.419Z,73.28
2016-10-18T05:54:54.391Z,72.61
2016-10-18T05:55:54.471Z,72.8
2016-10-18T05:57:54.352Z,72.23
2016-10-18T05:58:54.254Z,72.13
2016-10-18T05:59:54.652Z,72.13
2016-10-18T06:00:54.203Z,72.03
2016-10-18T06:01:54.179Z,71.94
2016-10-18T06:02:54.559Z,71.94
2016-10-18T06:03:54.118Z,72.23
2016-10-18T06:04:54.117Z,72.23
2016-10-18T06:05:54.066Z,72.8
2016-10-18T06:06:54.034Z,72.61
2016-10-18T06:07:54.006Z,72.61
2016-10-18T06:08:54.006Z,72.42
2016-10-18T06:09:53.985Z,72.23
2016-10-18T06:10:53.919Z,72.23
2016-10-18T06:11:53.916Z,72.13
2016-10-18T06:12:54.250Z,72.71
2016-10-18T06:13:53.863Z,72.8
2016-10-18T06:15:08.842Z,72.23
2016-10-18T06:15:53.811Z,72.23
2016-10-18T06:16:53.762Z,71.75
2016-10-18T06:17:53.724Z,71.98
2016-10-18T06:18:53.709Z,71.78
2016-10-18T06:19:53.669Z,72.23
2016-10-18T06:20:53.665Z,71.88
2016-10-18T06:21:53.623Z,71.88
2016-10-18T06:22:53.607Z,71.84
2016-10-18T06:23:53.611Z,71.88
2016-10-18T06:24:54.306Z,72.17
2016-10-18T06:25:53.509Z,72.27
2016-10-18T06:26:53.551Z,71.88
2016-10-18T06:27:53.476Z,72.17
2016-10-18T06:29:08.151Z,72.17
2016-10-18T06:29:53.424Z,72.17
2016-10-18T06:30:53.377Z,72.17
2016-10-18T06:31:53.354Z,72.17
2016-10-18T06:32:53.328Z,72.07
2016-10-18T06:33:53.285Z,72.07
2016-10-18T06:34:53.265Z,71.98
2016-10-18T06:35:53.958Z,71.88
2016-10-18T06:36:53.214Z,72.84
2016-10-18T06:37:53.177Z,72.64
2016-10-18T06:38:53.144Z,72.45
2016-10-18T06:39:53.125Z,72.45
2016-10-18T06:40:53.204Z,71.88
2016-10-18T06:42:07.802Z,71.98
2016-10-18T06:42:53.040Z,72.27
2016-10-18T06:43:53.360Z,72.45
2016-10-18T06:44:52.986Z,72.64
2016-10-18T06:45:52.956Z,72.45
2016-10-18T06:46:52.926Z,72.84
2016-10-18T06:47:53.253Z,71.98
2016-10-18T06:48:52.874Z,72.64
2016-10-18T06:49:52.847Z,72.07
2016-10-18T06:50:52.824Z,72.07
2016-10-18T06:51:52.795Z,72.07
2016-10-18T06:52:52.799Z,72.27
2016-10-18T06:53:52.771Z,72.17
2016-10-18T06:54:52.724Z,72.17
2016-10-18T06:55:52.702Z,72.27
2016-10-18T06:56:52.964Z,71.59
2016-10-18T06:57:52.641Z,71.98
2016-10-18T06:58:52.591Z,72.68
2016-10-18T06:59:52.576Z,71.88
2016-10-18T07:00:52.597Z,72.07
2016-10-18T07:01:52.550Z,72.3
2016-10-18T07:02:52.951Z,71.92
2016-10-18T07:03:52.450Z,71.82
2016-10-18T07:04:52.431Z,72.49
2016-10-18T07:05:52.398Z,72.11
2016-10-18T07:06:52.397Z,71.92
2016-10-18T07:07:52.731Z,71.92
2016-10-18T07:08:58.769Z,72.11
2016-10-18T07:09:52.283Z,71.82
2016-10-18T07:11:07.091Z,72.88
2016-10-18T07:11:52.246Z,72.88
2016-10-18T07:12:52.226Z,72.49
2016-10-18T07:13:52.249Z,72.2
2016-10-18T07:14:52.152Z,71.92
2016-10-18T07:15:52.664Z,72.68
2016-10-18T07:16:52.102Z,72.88
2016-10-18T07:17:52.072Z,72.78
2016-10-18T07:18:52.183Z,73.93
2016-10-18T07:19:52.080Z,72.84
2016-10-18T07:20:52.020Z,73.13
2016-10-18T07:22:06.676Z,72.55
2016-10-18T07:22:51.938Z,72.78
2016-10-18T07:24:06.648Z,72.68
2016-10-18T07:24:52.052Z,72.3
2016-10-18T07:25:51.842Z,72.59
2016-10-18T07:26:51.827Z,72.78
2016-10-18T07:27:51.792Z,72.68
2016-10-18T07:28:51.778Z,72.88
2016-10-18T07:29:52.098Z,73.32
2016-10-18T07:30:51.703Z,72.59
2016-10-18T07:31:51.676Z,72.68
2016-10-18T07:33:51.646Z,72.78
2016-10-18T07:34:51.613Z,72.68
2016-10-18T07:35:51.574Z,72.11
2016-10-18T07:36:52.268Z,72.11
2016-10-18T07:37:51.517Z,71.82
2016-10-18T07:38:51.489Z,72.11
2016-10-18T07:40:06.454Z,72.05
2016-10-18T07:40:51.790Z,72.01
2016-10-18T07:41:51.428Z,72.05
2016-10-18T07:42:51.494Z,72.33
2016-10-18T07:44:06.094Z,72.68
2016-10-18T07:44:51.679Z,72.11
2016-10-18T07:45:51.656Z,72.81
2016-10-18T07:46:51.265Z,72.49
2016-10-18T07:47:51.232Z,72.11
2016-10-18T07:48:51.300Z,72.53
2016-10-18T07:49:51.548Z,72.05
2016-10-18T07:50:51.172Z,71.76
2016-10-18T07:51:51.161Z,71.95
2016-10-18T07:52:51.131Z,72.14
2016-10-18T07:53:51.073Z,72.05
2016-10-18T07:54:51.075Z,72.53
2016-10-18T07:55:51.494Z,71.76
2016-10-18T07:56:51.023Z,71.76
2016-10-18T07:57:51.459Z,71.57
2016-10-18T07:58:51.003Z,70.8
2016-10-18T07:59:51.298Z,71.09
2016-10-18T08:00:50.883Z,71.28
2016-10-18T08:01:50.852Z,71.47
2016-10-18T08:02:50.835Z,71.22
2016-10-18T08:03:50.820Z,70.74
2016-10-18T08:04:51.277Z,70.45
2016-10-18T08:05:50.898Z,70.45
2016-10-18T08:06:50.719Z,70.36
2016-10-18T08:07:50.703Z,70.26
2016-10-18T08:08:51.036Z,70.55
2016-10-18T08:09:50.647Z,70.36
2016-10-18T08:10:50.673Z,71.12
2016-10-18T08:11:50.589Z,70.64
2016-10-18T08:12:50.921Z,70.45
2016-10-18T08:13:50.549Z,70.17
2016-10-18T08:14:50.557Z,70.26
2016-10-18T08:15:50.880Z,70.26
2016-10-18T08:16:51.140Z,70.36
2016-10-18T08:17:50.440Z,70.07
2016-10-18T08:18:50.449Z,69.78
2016-10-18T08:19:50.439Z,69.49
2016-10-18T08:20:50.387Z,70.1
2016-10-18T08:21:50.337Z,69.43
2016-10-18T08:22:50.317Z,69.81
2016-10-18T08:23:50.271Z,68.95
2016-10-18T08:24:50.298Z,69.24
2016-10-18T08:25:50.310Z,68.85
2016-10-18T08:26:50.190Z,69.14
2016-10-18T08:27:50.181Z,69.11
2016-10-18T08:28:50.133Z,69.53
2016-10-18T08:29:50.206Z,68.66
2016-10-18T08:30:50.084Z,68.28
2016-10-18T08:31:50.050Z,68.08
2016-10-18T08:32:50.203Z,68.57
2016-10-18T08:33:49.985Z,68.79
2016-10-18T08:34:49.998Z,68.37
2016-10-18T08:35:50.365Z,68.18
2016-10-18T08:36:50.298Z,68.37
2016-10-18T08:38:49.851Z,67.99
2016-10-18T08:39:49.828Z,67.99
2016-10-18T08:40:50.660Z,68.31
2016-10-18T08:41:50.031Z,68.47
2016-10-18T08:42:49.750Z,68.21
2016-10-18T08:43:49.745Z,68.28
2016-10-18T08:44:50.043Z,67.8
2016-10-18T08:45:49.793Z,67.35
2016-10-18T08:46:49.652Z,67.51
2016-10-18T08:47:49.628Z,67.51
2016-10-18T08:48:49.595Z,67.51
2016-10-18T08:49:49.556Z,68.02
2016-10-18T08:50:49.584Z,67.35
2016-10-18T08:51:49.545Z,67.35
2016-10-18T08:53:49.448Z,67.74
2016-10-18T08:54:49.447Z,67.25
2016-10-18T08:55:49.392Z,66.77
2016-10-18T08:56:49.382Z,67.16
2016-10-18T08:57:49.343Z,66.3
2016-10-18T08:58:49.313Z,66.39
2016-10-18T09:00:04.045Z,66.68
2016-10-18T09:00:49.295Z,66.68
2016-10-18T09:01:49.604Z,66.3
2016-10-18T09:02:49.210Z,65.62
2016-10-18T09:03:49.202Z,65.62
2016-10-18T09:04:49.240Z,65.53
2016-10-18T09:05:49.143Z,65.23
2016-10-18T09:06:49.112Z,65.72
2016-10-18T09:07:49.200Z,66.39
2016-10-18T09:08:49.068Z,65.43
2016-10-18T09:09:49.081Z,64.37
2016-10-18T09:10:48.996Z,64.6
2016-10-18T09:11:48.969Z,64.79
2016-10-18T09:12:49.006Z,64.89
2016-10-18T09:13:48.962Z,63.92
2016-10-18T09:14:48.914Z,64.5
2016-10-18T09:15:49.261Z,64.98
2016-10-18T09:16:48.863Z,64.69
2016-10-18T09:17:48.887Z,64.89
2016-10-18T09:18:48.781Z,65.56
2016-10-18T09:19:48.758Z,65.17
2016-10-18T09:20:48.747Z,63.83
2016-10-18T09:21:48.731Z,64.12
2016-10-18T09:22:48.681Z,63.64
2016-10-18T09:23:48.641Z,63.92
2016-10-18T09:24:48.644Z,64.02
2016-10-18T09:26:03.320Z,63.38
2016-10-18T09:26:48.608Z,64.02
2016-10-18T09:27:48.562Z,64.05
2016-10-18T09:28:48.666Z,63.95
2016-10-18T09:29:49.245Z,62.96
2016-10-18T09:30:48.469Z,63.48
2016-10-18T09:31:48.498Z,62.71
2016-10-18T09:32:48.443Z,62.9
2016-10-18T09:33:48.405Z,62.9
2016-10-18T09:34:48.396Z,62.9
2016-10-18T09:35:48.520Z,61.84
2016-10-18T09:36:48.340Z,62.77
2016-10-18T09:37:48.292Z,63.06
2016-10-18T09:38:48.253Z,63.45
2016-10-18T09:39:48.591Z,63.25
2016-10-18T09:41:02.941Z,62.1
2016-10-18T09:41:48.206Z,61.81
2016-10-18T09:42:48.179Z,61.81
2016-10-18T09:43:48.150Z,62
2016-10-18T09:44:48.105Z,62.48
2016-10-18T09:45:48.526Z,62.96
2016-10-18T09:46:48.222Z,62.96
2016-10-18T09:47:48.043Z,63.15
2016-10-18T09:48:48.068Z,62.96
2016-10-18T09:49:48.034Z,62.48
2016-10-18T09:50:48.705Z,62.29
2016-10-18T09:51:47.985Z,63.06
2016-10-18T09:52:48.013Z,62.68
2016-10-18T09:53:47.896Z,62.87
2016-10-18T09:54:48.293Z,62.68
2016-10-18T09:58:11.794Z,62.68
2016-10-18T09:59:10.908Z,62.68
2016-10-18T10:00:11.203Z,62.68
2016-10-18T10:01:10.866Z,62.87
2016-10-18T10:02:10.814Z,62.29
2016-10-18T10:03:10.806Z,62.32
2016-10-18T10:04:10.833Z,61.55
2016-10-18T10:05:10.774Z,61.65
2016-10-18T10:06:10.810Z,61.26
2016-10-18T10:07:11.090Z,61.55
2016-10-18T10:08:25.374Z,61.16
2016-10-18T10:09:10.681Z,61.52
2016-10-18T10:10:10.589Z,61.52
2016-10-18T10:11:25.411Z,61.52
2016-10-18T10:12:10.567Z,60.69
2016-10-18T10:13:10.576Z,61.07
2016-10-18T10:14:10.515Z,61.26
2016-10-18T10:15:11.027Z,59.72
2016-10-18T10:16:10.506Z,59.82
2016-10-18T10:17:10.457Z,60.04
2016-10-18T10:18:10.396Z,59.47
2016-10-18T10:19:10.368Z,59.08
2016-10-18T10:20:10.721Z,59.56
2016-10-18T10:21:10.372Z,59.56
2016-10-18T10:22:10.479Z,59.85
2016-10-18T10:23:10.649Z,59.66
2016-10-18T10:24:10.248Z,59.08
2016-10-18T10:25:10.955Z,59.17
2016-10-18T10:26:10.457Z,59.66
2016-10-18T10:27:10.217Z,58.82
2016-10-18T10:28:10.145Z,59.08
2016-10-18T10:29:10.099Z,58.4
2016-10-18T10:30:10.468Z,58.7
2016-10-18T10:31:10.077Z,59.66
2016-10-18T10:32:10.303Z,59.08
2016-10-18T10:33:10.018Z,58.98
2016-10-18T10:34:24.993Z,58.44
2016-10-18T10:35:10.324Z,59.11
2016-10-18T10:36:24.646Z,59.11
2016-10-18T10:37:11.554Z,57.83
2016-10-18T10:38:09.906Z,58.6
2016-10-18T10:39:10.405Z,58.31
2016-10-18T10:40:10.382Z,58.53
2016-10-18T10:41:10.401Z,58.4
2016-10-18T10:42:10.260Z,57.95
2016-10-18T10:43:09.754Z,57.92
2016-10-18T10:44:09.740Z,58.15
2016-10-18T10:45:10.223Z,57.57
2016-10-18T10:46:10.056Z,58.44
2016-10-18T10:47:09.630Z,57.79
2016-10-18T10:48:09.765Z,57.31
2016-10-18T10:49:14.655Z,56.9
2016-10-18T10:50:09.589Z,56.99
2016-10-18T10:52:10.074Z,56.32
2016-10-18T10:53:10.019Z,56.6
2016-10-18T10:54:10.058Z,57.09
2016-10-18T10:55:09.836Z,56.8
2016-10-18T10:56:09.417Z,56.32
2016-10-18T10:57:24.108Z,55.93
2016-10-18T10:59:09.354Z,56.48
2016-10-18T11:00:09.369Z,56.38
2016-10-18T11:01:09.333Z,57.45
2016-10-18T11:02:09.896Z,56.58
2016-10-18T11:03:09.252Z,56.38
2016-10-18T11:04:09.213Z,57.45
2016-10-18T11:05:09.379Z,57.35
2016-10-18T11:06:23.885Z,57.86
2016-10-18T11:07:09.187Z,57.37
2016-10-18T11:08:09.119Z,56.7
2016-10-18T11:10:09.423Z,56.05
2016-10-18T11:11:09.314Z,55.96
2016-10-18T11:12:09.195Z,55.62
2016-10-18T11:13:08.954Z,55.45
2016-10-18T11:14:08.941Z,55.65
2016-10-18T11:15:09.218Z,56.22
2016-10-18T11:16:09.347Z,55.65
2016-10-18T11:17:09.034Z,55.45
2016-10-18T11:18:23.576Z,55.87
2016-10-18T11:19:09.202Z,56.05
2016-10-18T11:20:09.049Z,55.57
2016-10-18T11:21:09.696Z,55.09
2016-10-18T11:22:08.788Z,55.38
2016-10-18T11:23:09.593Z,55.57
2016-10-18T11:24:08.791Z,54.61
2016-10-18T11:25:09.086Z,55.55
2016-10-18T11:26:10.508Z,55.19
2016-10-18T11:27:23.336Z,55.29
2016-10-18T11:28:08.726Z,54.61
2016-10-18T11:29:08.568Z,55.67
2016-10-18T11:30:09.458Z,55.48
2016-10-18T11:31:08.906Z,55.87
2016-10-18T11:32:08.914Z,55.77
2016-10-18T11:33:08.536Z,56.35
2016-10-18T11:34:08.459Z,55.26
2016-10-18T11:35:08.922Z,55.77
2016-10-18T11:36:08.394Z,56.32
2016-10-18T11:37:08.674Z,55.67
2016-10-18T11:38:23.139Z,55.87
2016-10-18T11:39:08.412Z,55.38
2016-10-18T11:40:23.507Z,55.57
2016-10-18T11:41:08.282Z,54.61
2016-10-18T11:42:08.368Z,54.32
2016-10-18T11:43:08.613Z,53.94
2016-10-18T11:44:08.191Z,54.71
2016-10-18T11:45:08.500Z,55
2016-10-18T11:46:08.379Z,54.68
2016-10-18T11:47:22.976Z,54.32
2016-10-18T11:48:08.647Z,54.13
2016-10-18T11:49:08.044Z,53.84
2016-10-18T11:50:08.031Z,54.22
2016-10-18T11:51:08.004Z,54.42
2016-10-18T11:52:08.381Z,55.09
2016-10-18T11:53:08.368Z,54.42
2016-10-18T11:54:07.916Z,54.32
2016-10-18T11:55:07.901Z,54.52
2016-10-18T11:56:08.270Z,53.65
2016-10-18T11:57:07.876Z,54.03
2016-10-18T11:59:07.769Z,53.94
2016-10-18T12:00:08.174Z,53.94
2016-10-18T12:01:08.179Z,54.03
2016-10-18T12:02:08.265Z,53.94
2016-10-18T12:03:07.680Z,54.42
2016-10-18T12:04:07.695Z,54.42
2016-10-18T12:05:07.671Z,53.74
2016-10-18T12:06:07.655Z,53.94
2016-10-18T12:07:08.151Z,54.03
2016-10-18T12:09:07.629Z,54.61
2016-10-18T12:10:07.820Z,55.29
2016-10-18T12:11:07.700Z,55.29
2016-10-18T12:12:07.454Z,54.25
2016-10-18T12:13:08.090Z,53.58
2016-10-18T12:14:07.450Z,53.67
2016-10-18T12:15:07.811Z,53.67
2016-10-18T12:16:08.597Z,53.87
2016-10-18T12:17:07.350Z,53.77
2016-10-18T12:18:07.369Z,53.74
2016-10-18T12:19:07.538Z,54.03
2016-10-18T12:20:07.290Z,53.55
2016-10-18T12:21:07.314Z,53.74
2016-10-18T12:22:07.205Z,53
2016-10-18T12:23:07.221Z,53.07
2016-10-18T12:25:07.183Z,53.94
2016-10-18T12:26:07.451Z,54.03
2016-10-18T12:27:07.178Z,53.45
2016-10-18T12:28:07.066Z,53.55
2016-10-18T12:29:07.261Z,54.13
2016-10-18T12:30:07.365Z,54.32
2016-10-18T12:31:07.411Z,54.42
2016-10-18T12:32:07.335Z,54.42
2016-10-18T12:33:21.643Z,54.32
2016-10-18T12:34:07.040Z,55.26
2016-10-18T12:35:21.586Z,54.58
2016-10-18T12:36:06.876Z,55.35
2016-10-18T12:37:07.128Z,54.58
2016-10-18T12:38:06.813Z,54.3
2016-10-18T12:39:06.778Z,54.75
2016-10-18T12:40:07.923Z,54.46
2016-10-18T12:41:07.476Z,55.33
2016-10-18T12:42:07.086Z,55.52
2016-10-18T12:43:07.883Z,54.58
2016-10-18T12:44:08.435Z,54.68
2016-10-18T12:45:07.566Z,55.13
2016-10-18T12:46:07.835Z,55.04
2016-10-18T12:47:06.648Z,55.52
2016-10-18T12:48:06.546Z,56
2016-10-18T12:49:06.556Z,56
2016-10-18T12:50:07.055Z,55.71
2016-10-18T12:51:06.526Z,55.71
2016-10-18T12:52:06.462Z,56.2
2016-10-18T12:53:06.424Z,56.67
2016-10-18T12:54:06.803Z,55.33
2016-10-18T12:55:06.488Z,55.23
2016-10-18T12:56:06.706Z,55.62
2016-10-18T12:57:06.382Z,56.1
2016-10-18T12:58:06.276Z,55.71
2016-10-18T12:59:06.272Z,56.1
2016-10-18T13:00:06.281Z,55.23
2016-10-18T13:01:06.237Z,54.46
2016-10-18T13:02:06.237Z,55.13
2016-10-18T13:03:06.436Z,55.13
2016-10-18T13:04:06.797Z,55.71
2016-10-18T13:05:06.532Z,55.71
2016-10-18T13:06:06.593Z,56
2016-10-18T13:07:06.697Z,55.33
2016-10-18T13:08:20.740Z,54.65
2016-10-18T13:09:06.509Z,54.65
2016-10-18T13:10:06.428Z,54.85
2016-10-18T13:11:06.159Z,54.27
2016-10-18T13:12:05.945Z,54.27
2016-10-18T13:13:05.923Z,54.75
2016-10-18T13:14:05.918Z,54.36
2016-10-18T13:15:06.333Z,55.23
2016-10-18T13:16:05.828Z,54.24
2016-10-18T13:18:05.850Z,55.13
2016-10-18T13:19:06.801Z,55.23
2016-10-18T13:20:06.150Z,54.63